Latest Weather Observations for Maningrida Airport

IDD60801

Issued at 9:41 am CST Tuesday 20 November 2018 (issued every 10 minutes, with the page automatically refreshed every 10 minutes)

About weather observations | Map of weather stations | Latest weather observations for NT | Other Formats
Station Details ID: 014405 Name: MANINGRIDA AIRPORT Lat: -12.06 Lon: 134.23 Height: 28.1 m
Data from the previous 72 hours. | See also: Recent months at Maningrida Airport
Date/Time
CST
Temp
°C
App
Temp
°C
Dew
Point
°C
Rel
Hum
%
Delta-T
°C
Wind Press
QNH
hPa
Press
MSL
hPa
Rain since
9am
mm
Dir  Spd
km/h
Gust
km/h
Spd
kts
Gust
kts
20/09:30am 30.8 31.8 21.0 56 6.6 N 17 22 9 12 1010.5 1010.3 0.0
20/09:00am 30.3 30.7 19.0 50 7.3 N 15 22 8 12 1010.5 1010.3 0.0
20/08:30am 29.8 32.0 20.4 57 6.2 N 9 17 5 9 1010.7 1010.5 0.0
20/08:00am 29.8 32.2 20.9 59 5.9 NE 9 15 5 8 1010.8 1010.6 0.0
20/07:30am 29.3 32.2 21.0 61 5.5 NNE 7 11 4 6 1010.6 1010.4 0.0
20/07:00am 28.5 32.5 21.3 65 4.8 ENE 2 7 1 4 1010.3 1010.1 0.0
20/06:30am 26.7 30.5 21.7 74 3.3 SE 4 6 2 3 1010.1 1009.9 0.0
20/06:00am 26.0 28.9 21.0 74 3.3 ESE 7 7 4 4 1009.8 1009.6 0.0
20/05:30am 26.9 30.0 21.0 70 3.9 ENE 6 7 3 4 1009.5 1009.3 0.0
20/05:00am 27.6 30.8 21.2 68 4.3 ENE 6 7 3 4 1009.3 1009.1 0.0
20/04:30am 28.0 31.1 21.1 66 4.6 NNE 6 9 3 5 1009.1 1008.9 0.0
20/04:00am 27.9 31.2 21.4 67 4.3 NNE 6 9 3 5 1009.2 1009.0 0.0
20/03:30am 28.0 31.3 21.5 67 4.4 NNE 6 9 3 5 1009.2 1009.0 0.0
20/03:00am 27.7 31.0 21.5 69 4.1 NE 6 9 3 5 1009.2 1009.0 0.0
20/02:30am 27.4 30.5 21.4 70 4.0 NE 7 9 4 5 1009.2 1009.0 0.0
20/02:00am 27.5 30.7 21.3 69 4.1 NE 6 7 3 4 1009.5 1009.3 0.0
20/01:30am 27.8 31.0 21.3 67 4.3 NNE 6 9 3 5 1009.6 1009.4 0.0
20/01:00am 28.0 31.2 21.3 67 4.5 NE 6 9 3 5 1009.7 1009.5 0.0
20/12:30am 28.3 30.7 21.6 67 4.5 NNE 11 17 6 9 1009.7 1009.5 0.0
20/12:00am 28.5 31.3 21.5 66 4.7 NNE 9 15 5 8 1009.9 1009.7 0.0
 
Date/Time
CST
Temp
°C
App
Temp
°C
Dew
Point
°C
Rel
Hum
%
Delta-T
°C
Wind Press
QNH
hPa
Press
MSL
hPa
Rain since
9am
mm
Dir  Spd
km/h
Gust
km/h
Spd
kts
Gust
kts
19/11:30pm 28.6 30.3 21.6 66 4.7 NNE 15 24 8 13 1010.2 1010.0 0.0
19/11:00pm 28.9 31.5 22.6 69 4.3 NNE 13 20 7 11 1010.3 1010.1 0.0
19/10:30pm 28.8 30.4 22.1 67 4.5 NNE 17 24 9 13 1010.4 1010.2 0.0
19/10:00pm 28.7 30.6 22.0 67 4.5 NE 15 19 8 10 1010.3 1010.1 0.0
19/09:30pm 28.8 30.5 22.3 68 4.4 NNE 17 26 9 14 1009.9 1009.7 0.0
19/09:00pm 29.0 30.1 22.0 66 4.7 NNE 19 26 10 14 1009.5 1009.3 0.0
19/08:30pm 29.1 30.9 21.8 64 4.9 NNE 15 20 8 11 1009.5 1009.3 0.0
19/08:00pm 29.2 30.3 21.2 62 5.3 NNE 17 28 9 15 1008.8 1008.6 0.0
19/07:30pm 29.2 29.7 20.9 61 5.5 NNE 19 28 10 15 1008.3 1008.1 0.0
19/07:00pm 29.2 29.8 21.4 63 5.2 NNE 20 28 11 15 1007.7 1007.5 0.0
19/06:30pm 29.4 31.0 21.4 62 5.4 NE 15 22 8 12 1007.5 1007.3 0.0
19/06:00pm 29.5 31.0 21.2 61 5.6 NE 15 20 8 11 1007.5 1007.3 0.0
19/05:30pm 29.7 31.1 21.1 60 5.8 NNE 15 20 8 11 1007.4 1007.2 0.0
19/05:00pm 30.0 31.4 21.1 59 5.9 NE 15 19 8 10 1007.5 1007.3 0.0
19/04:30pm 31.0 32.1 22.0 58 6.1 NNE 19 26 10 14 1007.3 1007.1 0.0
19/04:00pm 31.4 32.2 21.8 56 6.5 NNE 20 28 11 15 1007.2 1007.0 0.0
19/03:30pm 32.5 33.8 22.6 56 6.8 N 20 30 11 16 1007.3 1007.1 0.0
19/03:00pm 31.2 31.3 21.9 57 6.3 N 24 32 13 17 1007.1 1006.9 0.0
19/02:30pm 31.6 32.1 22.6 59 6.2 N 24 35 13 19 1007.4 1007.2 0.0
19/02:00pm 31.5 31.6 21.9 56 6.5 N 24 30 13 16 1007.6 1007.4 0.0
19/01:30pm 31.9 32.9 22.9 59 6.2 N 22 30 12 16 1008.1 1007.9 0.0
19/01:00pm 32.0 33.3 22.7 58 6.4 N 20 26 11 14 1008.5 1008.3 0.0
19/12:30pm 31.7 32.1 20.9 52 7.2 N 20 26 11 14 1009.1 1008.9 0.0
19/12:00pm 31.3 32.6 22.3 58 6.1 N 19 24 10 13 1009.6 1009.4 0.0
19/11:30am 31.8 33.9 22.5 58 6.4 N 15 20 8 11 1010.1 1009.9 0.0
19/11:00am 31.1 32.8 22.4 60 5.9 NNW 17 20 9 11 1010.2 1010.0 0.0
19/10:30am 30.5 33.6 22.1 61 5.7 NW 9 17 5 9 1010.5 1010.3 0.0
19/10:00am 29.8 33.2 21.7 61 5.5 WNW 6 9 3 5 1010.7 1010.5 0.0
19/09:30am 29.1 32.3 21.6 64 5.0 WSW 7 13 4 7 1010.9 1010.7 0.0
19/09:00am 28.2 31.6 21.7 68 4.4 S 6 9 3 5 1010.8 1010.6 0.0
19/08:30am 27.5 31.8 22.0 72 3.7 SSW 2 6 1 3 1010.7 1010.5 0.0
19/08:00am 26.2 30.6 22.1 78 2.7 SW 2 7 1 4 1010.4 1010.2 0.0
19/07:30am 25.5 30.0 22.2 82 2.2 SW 2 6 1 3 1010.2 1010.0 0.0
19/07:00am 25.2 30.0 22.1 83 2.1 CALM 0 6 0 3 1010.0 1009.8 0.0
19/06:30am 24.7 28.4 22.2 86 1.7 SSW 6 7 3 4 1009.5 1009.3 0.0
19/06:00am 24.5 28.6 22.2 87 1.5 SSW 4 7 2 4 1009.2 1009.0 0.0
19/05:30am 24.5 28.2 22.2 87 1.5 S 6 7 3 4 1009.0 1008.8 0.0
19/05:00am 24.7 28.7 22.0 85 1.8 S 4 7 2 4 1008.8 1008.6 0.0
19/04:30am 24.8 28.5 22.3 86 1.7 S 6 9 3 5 1008.7 1008.5 0.0
19/04:00am 24.8 28.4 22.1 85 1.8 SSE 6 9 3 5 1008.8 1008.6 0.0
19/03:30am 24.8 28.4 22.1 85 1.8 S 6 9 3 5 1008.8 1008.6 0.0
19/03:00am 24.9 28.4 22.2 85 1.8 S 7 9 4 5 1008.9 1008.7 0.0
19/02:30am 25.0 28.6 22.1 84 1.9 S 6 7 3 4 1009.2 1009.0 0.0
19/02:00am 25.0 28.5 22.1 84 1.9 SSW 7 9 4 5 1009.3 1009.1 0.0
19/01:30am 25.1 27.8 22.2 84 1.9 SSE 11 17 6 9 1009.7 1009.5 0.0
19/01:00am 25.0 27.3 22.1 84 1.9 SSE 13 19 7 10 1010.2 1010.0 0.0
19/12:30am 25.2 28.3 22.1 83 2.1 S 9 17 5 9 1010.4 1010.2 0.0
19/12:00am 25.4 28.3 21.7 80 2.5 S 9 13 5 7 1010.5 1010.3 0.0
 
Date/Time
CST
Temp
°C
App
Temp
°C
Dew
Point
°C
Rel
Hum
%
Delta-T
°C
Wind Press
QNH
hPa
Press
MSL
hPa
Rain since
9am
mm
Dir  Spd
km/h
Gust
km/h
Spd
kts
Gust
kts
18/11:30pm 25.6 27.7 21.7 79 2.6 SSE 13 19 7 10 1010.7 1010.5 0.0
18/11:00pm 25.8 28.4 21.9 79 2.6 SSW 11 19 6 10 1011.0 1010.8 0.0
18/10:30pm 26.2 28.2 21.6 76 3.1 SSE 13 20 7 11 1011.5 1011.2 0.0
18/10:00pm 27.0 28.3 21.7 73 3.5 SSE 17 26 9 14 1011.4 1011.1 0.0
18/09:30pm 27.3 29.6 21.3 69 4.0 SSW 11 17 6 9 1010.8 1010.6 0.0
18/09:00pm 27.6 30.0 21.6 70 4.0 SSW 11 17 6 9 1010.7 1010.5 0.0
18/08:30pm 28.4 31.3 21.7 67 4.5 WSW 9 17 5 9 1010.0 1009.8 0.0
18/08:00pm 29.2 31.4 21.9 64 4.9 NW 13 19 7 10 1009.4 1009.2 0.0
18/07:30pm 29.3 31.2 22.0 64 4.9 NW 15 22 8 12 1009.1 1008.9 0.0
18/07:00pm 29.5 31.6 22.5 66 4.8 NW 15 20 8 11 1008.7 1008.5 0.0
18/06:30pm 29.6 30.9 22.3 65 5.0 NNW 19 24 10 13 1008.3 1008.1 0.0
18/06:00pm 29.8 31.5 22.3 64 5.1 N 17 24 9 13 1007.9 1007.7 0.0
18/05:30pm 30.4 31.4 21.8 60 5.8 N 19 24 10 13 1007.5 1007.3 0.0
18/05:00pm 30.8 31.4 21.3 57 6.4 NNE 20 30 11 16 1007.2 1007.0 0.0
18/04:30pm 30.4 31.1 21.5 59 6.0 NNE 20 26 11 14 1006.8 1006.6 0.0
18/04:00pm 30.4 31.1 21.5 59 6.0 N 20 28 11 15 1007.0 1006.8 0.0
18/03:30pm 31.4 31.3 20.7 53 7.2 N 22 32 12 17 1007.2 1007.0 0.0
18/03:00pm 31.5 31.0 20.8 53 7.2 N 24 32 13 17 1007.5 1007.3 0.0
18/02:30pm 32.2 32.2 21.7 54 7.1 N 24 35 13 19 1007.7 1007.5 0.0
18/02:00pm 31.7 31.8 21.8 55 6.7 N 24 32 13 17 1008.0 1007.8 0.0
18/01:30pm 32.3 32.5 22.7 57 6.6 N 26 33 14 18 1008.4 1008.2 0.0
18/01:00pm 31.9 32.1 22.0 55 6.7 N 24 32 13 17 1009.0 1008.8 0.0
18/12:30pm 33.3 33.7 21.8 51 7.8 N 22 28 12 15 1009.3 1009.1 0.0
18/12:00pm 32.4 33.0 21.3 52 7.5 N 20 28 11 15 1009.9 1009.7 0.0
18/11:30am 32.3 32.5 20.2 48 8.0 NNE 19 26 10 14 1010.4 1010.2 0.0
18/11:00am 32.8 33.7 20.0 47 8.5 NNW 15 20 8 11 1010.7 1010.5 0.0
18/10:30am 31.9 33.6 20.2 50 7.8 NW 11 17 6 9 1011.0 1010.8 0.0
18/10:00am 31.7 33.9 21.2 53 7.1 NNW 11 17 6 9 1011.3 1011.0 0.0
18/09:30am 30.5 33.2 21.3 58 6.2 W 9 15 5 8 1011.1 1010.9 0.0
18/09:00am 30.5 33.1 21.9 60 5.8 W 11 17 6 9 1011.0 1010.8 0.0
18/08:30am 29.7 32.7 21.9 63 5.3 WSW 9 19 5 10 1010.7 1010.5 0.0
18/08:00am 28.7 31.4 22.2 68 4.4 WSW 11 17 6 9 1010.4 1010.2 0.0
18/07:30am 27.9 31.6 22.6 73 3.6 WSW 7 13 4 7 1010.1 1009.9 0.0
18/07:00am 26.4 30.3 22.5 79 2.6 WSW 6 9 3 5 1009.9 1009.7 0.0
18/06:30am 25.2 29.1 22.5 85 1.8 SW 6 7 3 4 1009.6 1009.4 0.0
18/06:00am 24.7 28.4 22.2 86 1.7 SW 6 9 3 5 1009.3 1009.1 0.0
18/05:30am 24.7 28.1 22.0 85 1.8 WSW 7 9 4 5 1009.1 1008.9 0.0
18/05:00am 25.0 28.6 22.3 85 1.8 SSW 7 13 4 7 1008.7 1008.5 0.0
18/04:30am 25.3 28.9 22.4 84 2.0 SSW 7 13 4 7 1008.4 1008.2 0.0
18/04:00am 25.4 29.0 22.3 83 2.1 SSW 7 9 4 5 1008.2 1008.0 0.0
18/03:30am 25.5 29.1 22.4 83 2.1 SW 7 11 4 6 1007.8 1007.6 0.0
18/03:00am 25.9 30.1 22.4 81 2.4 SSW 4 7 2 4 1007.9 1007.7 0.0
18/02:30am 26.3 31.1 22.2 78 2.8 CALM 0 0 0 0 1007.8 1007.6 0.0
18/02:00am 27.0 31.7 22.0 74 3.4 CALM 0 0 0 0 1008.2 1008.0 0.0
18/01:30am 27.5 31.6 22.2 73 3.6 ENE 4 7 2 4 1008.6 1008.4 0.0
18/01:00am 27.7 31.5 22.4 73 3.6 ENE 6 7 3 4 1009.1 1008.9 0.0
18/12:30am 27.7 31.3 22.4 73 3.6 ENE 7 9 4 5 1009.3 1009.1 0.0
18/12:00am 27.9 31.7 22.4 72 3.7 ENE 6 7 3 4 1009.7 1009.5 0.0
 
Date/Time
CST
Temp
°C
App
Temp
°C
Dew
Point
°C
Rel
Hum
%
Delta-T
°C
Wind Press
QNH
hPa
Press
MSL
hPa
Rain since
9am
mm
Dir  Spd
km/h
Gust
km/h
Spd
kts
Gust
kts
17/11:30pm 28.0 31.6 22.0 70 4.0 ENE 6 7 3 4 1010.0 1009.8 0.0
17/11:00pm 28.0 31.5 21.8 69 4.2 ENE 6 7 3 4 1010.1 1009.9 0.0
17/10:30pm 28.2 32.4 21.7 68 4.4 ENE 2 6 1 3 1010.1 1009.9 0.0
17/10:00pm 28.1 31.5 21.6 68 4.4 ENE 6 7 3 4 1009.9 1009.7 0.0
17/09:30pm 28.4 31.8 21.7 67 4.5 NE 6 9 3 5 1009.7 1009.5 0.0
17/09:00pm 28.6 31.4 21.6 66 4.7 NNE 9 13 5 7 1009.4 1009.2 0.0
17/08:30pm 28.7 31.3 22.0 67 4.5 ENE 11 15 6 8 1009.2 1009.0 0.0
17/08:00pm 28.8 31.9 22.1 67 4.5 NNE 9 15 5 8 1008.8 1008.6 0.0
17/07:30pm 28.9 31.1 21.9 66 4.7 NNE 13 19 7 10 1008.6 1008.4 0.0
17/07:00pm 29.0 31.4 22.2 66 4.6 NNE 13 17 7 9 1008.2 1008.0 0.0
17/06:30pm 29.4 31.2 21.9 64 5.1 NNE 15 22 8 12 1007.9 1007.7 0.0
17/06:00pm 29.5 30.6 22.0 64 5.1 NNE 19 26 10 14 1007.6 1007.4 0.0
17/05:30pm 30.1 31.4 21.7 60 5.7 NNE 17 20 9 11 1007.5 1007.3 0.0
17/05:00pm 30.3 30.9 21.4 59 6.0 N 20 30 11 16 1007.3 1007.1 0.0
17/04:30pm 31.2 31.4 21.4 56 6.6 N 22 33 12 18 1007.4 1007.2 0.0
17/04:00pm 31.5 31.9 21.7 56 6.6 N 22 30 12 16 1007.5 1007.3 0.0
17/03:30pm 31.8 32.2 21.0 52 7.3 NNE 20 30 11 16 1007.8 1007.6 0.0
17/03:00pm 32.0 31.7 20.3 50 7.8 NNE 22 33 12 18 1007.7 1007.5 0.0
17/02:30pm 32.1 31.5 20.4 50 7.8 N 24 32 13 17 1008.0 1007.8 0.0
17/02:00pm 31.8 32.1 21.6 54 6.9 N 22 32 12 17 1008.3 1008.1 0.0
17/01:30pm 32.1 32.9 22.5 57 6.6 N 22 30 12 16 1008.9 1008.7 0.0
17/01:00pm 31.5 32.4 23.3 61 5.7 N 24 30 13 16 1009.6 1009.4 0.0
17/12:30pm 32.4 33.8 22.8 57 6.6 N 20 28 11 15 1010.4 1010.2 0.0
17/12:00pm 31.7 32.5 21.8 55 6.7 N 20 32 11 17 1010.9 1010.7 0.0
17/11:30am 31.8 32.7 21.9 55 6.7 NNE 20 26 11 14 1011.6 1011.3 0.0
17/11:00am 31.7 33.3 22.1 56 6.5 NNE 17 24 9 13 1011.8 1011.5 0.0
17/10:30am 29.5 31.1 22.2 65 4.9 N 17 24 9 13 1012.1 1011.8 0.0
17/10:00am 30.1 32.5 23.0 65 4.9 NNW 15 19 8 10 1012.4 1012.1 0.0

Other Formats:

Comma delimited format used in spreadsheet applications
http://www.bom.gov.au/fwo/IDD60801/IDD60801.95142.axf

JavaScript Object Notation format (JSON) in row-major order
http://www.bom.gov.au/fwo/IDD60801/IDD60801.95142.json